createdAt,value
2022-08-17T00:00:43.993Z,6.33
2022-08-17T00:03:10.070Z,6.77
2022-08-17T00:05:42.415Z,6.37
2022-08-17T00:08:18.674Z,6.57
2022-08-17T00:10:48.105Z,6.30
2022-08-17T00:13:19.831Z,6.10
2022-08-17T00:15:50.088Z,6.70
2022-08-17T00:19:02.443Z,5.97
2022-08-17T00:21:10.289Z,5.80
2022-08-17T00:23:47.837Z,5.90
2022-08-17T00:26:44.383Z,6.10
2022-08-17T00:29:07.603Z,6.53
2022-08-17T00:31:38.122Z,5.90
2022-08-17T00:34:08.819Z,6.00
2022-08-17T00:36:37.532Z,6.50
2022-08-17T00:39:06.323Z,6.53
2022-08-17T00:41:35.861Z,6.67
2022-08-17T00:44:06.263Z,6.93
2022-08-17T00:46:39.297Z,6.27
2022-08-17T00:49:09.586Z,6.63
2022-08-17T00:51:42.122Z,6.20
2022-08-17T00:54:13.836Z,6.60
2022-08-17T00:56:45.889Z,6.40
2022-08-17T00:59:18.250Z,6.40
2022-08-17T01:01:49.764Z,6.70
2022-08-17T01:04:19.559Z,6.63
2022-08-17T01:06:49.475Z,6.40
2022-08-17T01:09:18.957Z,5.80
2022-08-17T01:11:52.409Z,6.10
2022-08-17T01:14:21.547Z,5.53
2022-08-17T01:16:52.589Z,5.70
2022-08-17T01:19:23.485Z,5.77
2022-08-17T01:21:55.851Z,6.20
2022-08-17T01:24:25.950Z,6.30
2022-08-17T01:26:56.596Z,6.57
2022-08-17T01:29:26.442Z,6.37
2022-08-17T01:31:56.890Z,6.03
2022-08-17T01:34:42.428Z,5.83
2022-08-17T01:37:12.523Z,5.90
2022-08-17T01:39:46.644Z,6.10
2022-08-17T01:42:19.901Z,5.97
2022-08-17T01:44:53.500Z,5.43
2022-08-17T01:47:21.974Z,6.30
2022-08-17T01:49:50.860Z,6.00
2022-08-17T01:52:19.598Z,6.47
2022-08-17T01:54:50.906Z,6.60
2022-08-17T01:57:19.684Z,5.90
2022-08-17T01:59:48.320Z,6.20
2022-08-17T02:02:31.143Z,5.97
2022-08-17T02:05:00.482Z,6.37
2022-08-17T02:07:29.919Z,6.13
2022-08-17T02:10:00.550Z,6.20
2022-08-17T02:12:38.778Z,5.90
2022-08-17T02:15:10.405Z,6.83
2022-08-17T02:17:40.551Z,6.13
2022-08-17T02:20:10.803Z,5.87
2022-08-17T02:22:42.213Z,6.30
2022-08-17T02:25:14.285Z,6.53
2022-08-17T02:27:43.431Z,6.13
2022-08-17T02:30:58.943Z,6.40
2022-08-17T02:33:06.275Z,6.10
2022-08-17T02:35:38.555Z,6.10
2022-08-17T02:38:07.850Z,6.23
2022-08-17T02:40:40.687Z,6.00
2022-08-17T02:43:09.875Z,6.20
2022-08-17T02:45:38.631Z,7.30
2022-08-17T02:48:07.246Z,7.10
2022-08-17T02:50:35.944Z,6.67
2022-08-17T02:53:05.361Z,6.27
2022-08-17T02:55:36.258Z,7.07
2022-08-17T02:58:06.465Z,6.17
2022-08-17T03:00:37.836Z,7.00
2022-08-17T03:03:07.241Z,6.57
2022-08-17T03:05:37.430Z,5.87
2022-08-17T03:08:07.447Z,7.00
2022-08-17T03:10:41.699Z,6.97
2022-08-17T03:13:13.085Z,7.50
2022-08-17T03:15:43.857Z,7.97
2022-08-17T03:18:19.089Z,7.23
2022-08-17T03:20:55.543Z,6.60
2022-08-17T03:23:25.387Z,9.23
2022-08-17T03:25:55.694Z,11.70
2022-08-17T03:28:26.247Z,8.30
2022-08-17T03:30:55.794Z,8.60
2022-08-17T03:33:24.360Z,10.40
2022-08-17T03:35:53.333Z,7.40
2022-08-17T03:38:21.896Z,8.43
2022-08-17T03:40:56.412Z,9.20
2022-08-17T03:43:30.017Z,8.40
2022-08-17T03:46:28.896Z,7.77
2022-08-17T03:49:25.951Z,8.20
2022-08-17T03:52:12.216Z,7.50
2022-08-17T03:54:59.167Z,8.33
2022-08-17T03:57:27.735Z,7.37
2022-08-17T03:59:58.106Z,7.00
2022-08-17T04:02:29.677Z,6.07
2022-08-17T04:04:58.757Z,6.33
2022-08-17T04:07:29.067Z,6.20
2022-08-17T04:09:59.439Z,6.20
2022-08-17T04:12:30.941Z,6.03
2022-08-17T04:15:01.302Z,6.10
2022-08-17T04:17:30.602Z,5.90
2022-08-17T04:19:59.059Z,5.80
2022-08-17T04:22:32.868Z,5.90
2022-08-17T04:25:09.174Z,5.40
2022-08-17T04:27:38.220Z,5.97
2022-08-17T04:30:09.769Z,5.43
2022-08-17T04:33:03.746Z,5.70
2022-08-17T04:35:37.917Z,5.93
2022-08-17T04:38:06.646Z,5.57
2022-08-17T04:40:52.808Z,5.53
2022-08-17T04:43:23.189Z,5.33
2022-08-17T04:45:56.843Z,5.50
2022-08-17T04:48:29.967Z,5.70
2022-08-17T04:51:08.089Z,5.53
2022-08-17T04:53:37.174Z,5.50
2022-08-17T04:56:06.260Z,5.80
2022-08-17T04:58:34.863Z,5.70
2022-08-17T05:01:05.853Z,5.83
2022-08-17T05:03:34.470Z,6.30
2022-08-17T05:06:03.081Z,5.97
2022-08-17T05:08:31.926Z,5.90
2022-08-17T05:11:01.197Z,7.80
2022-08-17T05:13:30.720Z,7.07
2022-08-17T05:16:00.698Z,6.90
2022-08-17T05:18:31.349Z,6.37
2022-08-17T05:21:00.005Z,6.60
2022-08-17T05:23:37.863Z,5.83
2022-08-17T05:26:17.956Z,6.53
2022-08-17T05:28:54.647Z,6.57
2022-08-17T05:31:25.982Z,7.40
2022-08-17T05:33:55.867Z,7.10
2022-08-17T05:36:42.079Z,11.13
2022-08-17T05:39:16.614Z,11.70
2022-08-17T05:41:48.327Z,7.77
2022-08-17T05:44:17.731Z,6.60
2022-08-17T05:46:49.348Z,6.47
2022-08-17T05:49:22.859Z,5.73
2022-08-17T05:52:05.103Z,5.80
2022-08-17T05:54:42.918Z,5.70
2022-08-17T05:57:32.225Z,5.63
2022-08-17T06:00:15.992Z,6.27
2022-08-17T06:02:59.338Z,5.70
2022-08-17T06:05:52.423Z,6.77
2022-08-17T06:08:27.218Z,7.47
2022-08-17T06:11:00.609Z,5.82
2022-08-17T06:13:40.770Z,5.30
2022-08-17T06:16:31.118Z,5.60
2022-08-17T06:19:03.828Z,5.47
2022-08-17T06:21:36.247Z,5.05
2022-08-17T06:24:08.364Z,5.22
2022-08-17T06:26:42.940Z,5.35
2022-08-17T06:29:21.067Z,5.65
2022-08-17T06:31:50.123Z,5.25
2022-08-17T06:34:21.692Z,4.88
2022-08-17T06:36:56.555Z,5.20
2022-08-17T06:39:39.218Z,5.38
2022-08-17T06:43:02.909Z,5.60
2022-08-17T06:45:09.817Z,5.60
2022-08-17T06:47:44.560Z,5.35
2022-08-17T06:50:18.455Z,5.45
2022-08-17T06:52:52.451Z,6.10
2022-08-17T06:55:23.780Z,5.90
2022-08-17T06:57:55.482Z,5.68
2022-08-17T07:00:26.303Z,6.00
2022-08-17T07:02:58.034Z,5.65
2022-08-17T07:05:29.153Z,6.03
2022-08-17T07:08:04.773Z,5.60
2022-08-17T07:10:38.282Z,5.90
2022-08-17T07:13:29.529Z,5.65
2022-08-17T07:16:07.872Z,10.32
2022-08-17T07:18:36.470Z,6.13
2022-08-17T07:21:15.472Z,5.90
2022-08-17T07:24:00.682Z,5.75
2022-08-17T07:26:29.584Z,5.75
2022-08-17T07:28:58.137Z,6.05
2022-08-17T07:31:27.766Z,5.65
2022-08-17T07:34:07.999Z,5.95
2022-08-17T07:36:36.514Z,5.50
2022-08-17T07:39:06.665Z,6.15
2022-08-17T07:41:57.406Z,6.20
2022-08-17T07:44:27.640Z,5.72
2022-08-17T07:47:13.830Z,6.30
2022-08-17T07:49:46.476Z,6.10
2022-08-17T07:52:51.496Z,6.50
2022-08-17T07:55:32.740Z,5.80
2022-08-17T07:58:01.867Z,6.40
2022-08-17T08:00:32.097Z,8.95
2022-08-17T08:03:07.216Z,5.70
2022-08-17T08:05:49.927Z,6.03
2022-08-17T08:08:28.089Z,6.13
2022-08-17T08:11:05.319Z,6.05
2022-08-17T08:13:34.139Z,5.22
2022-08-17T08:16:26.000Z,5.60
2022-08-17T08:18:57.976Z,5.70
2022-08-17T08:21:36.614Z,5.10
2022-08-17T08:24:30.778Z,4.95
2022-08-17T08:27:09.433Z,6.45
2022-08-17T08:29:45.051Z,5.75
2022-08-17T08:32:20.219Z,5.68
2022-08-17T08:35:02.832Z,5.72
2022-08-17T08:37:42.141Z,5.70
2022-08-17T08:40:24.787Z,5.50
2022-08-17T08:43:00.693Z,5.65
2022-08-17T08:45:34.410Z,4.80
2022-08-17T08:48:46.068Z,5.30
2022-08-17T08:51:10.555Z,4.93
2022-08-17T08:53:49.045Z,4.93
2022-08-17T08:56:26.247Z,4.93
2022-08-17T08:59:02.239Z,5.32
2022-08-17T09:01:38.870Z,5.95
2022-08-17T09:04:55.922Z,5.63
2022-08-17T09:07:33.660Z,5.70
2022-08-17T09:10:10.297Z,5.53
2022-08-17T09:15:27.626Z,5.78
2022-08-17T09:19:01.183Z,7.05
2022-08-17T09:20:52.487Z,5.65
2022-08-17T09:23:32.469Z,5.45
2022-08-17T09:26:05.431Z,5.50
2022-08-17T09:28:37.805Z,5.97
2022-08-17T09:31:11.173Z,5.50
2022-08-17T09:33:44.559Z,5.45
2022-08-17T09:36:15.994Z,5.70
2022-08-17T09:38:58.362Z,5.20
2022-08-17T09:41:48.894Z,5.47
2022-08-17T09:44:25.895Z,5.10
2022-08-17T09:46:58.332Z,7.30
2022-08-17T09:49:31.035Z,5.80
2022-08-17T09:52:04.239Z,5.03
2022-08-17T09:54:39.289Z,4.70
2022-08-17T09:57:29.677Z,5.07
2022-08-17T10:00:16.938Z,4.93
2022-08-17T10:03:19.815Z,5.20
2022-08-17T10:05:56.426Z,5.40
2022-08-17T10:08:36.340Z,5.30
2022-08-17T10:11:18.037Z,5.20
2022-08-17T10:13:53.168Z,4.80
2022-08-17T10:16:27.400Z,4.68
2022-08-17T10:19:13.778Z,5.20
2022-08-17T10:22:14.402Z,4.97
2022-08-17T10:25:22.935Z,4.38
2022-08-17T10:27:56.652Z,4.13
2022-08-17T10:30:28.687Z,4.82
2022-08-17T10:32:59.719Z,4.85
2022-08-17T10:35:39.433Z,4.63
2022-08-17T10:38:32.356Z,4.78
2022-08-17T10:41:05.048Z,4.45
2022-08-17T10:43:55.849Z,4.53
2022-08-17T10:46:52.224Z,5.40
2022-08-17T10:49:33.993Z,4.80
2022-08-17T10:52:05.013Z,4.80
2022-08-17T10:54:49.039Z,4.72
2022-08-17T10:57:40.236Z,4.72
2022-08-17T11:00:39.158Z,5.03
2022-08-17T11:03:17.395Z,5.10
2022-08-17T11:05:54.170Z,5.20
2022-08-17T11:09:02.471Z,5.22
2022-08-17T11:11:49.909Z,4.75
2022-08-17T11:14:42.055Z,4.82
2022-08-17T11:17:20.519Z,4.55
2022-08-17T11:20:21.459Z,4.40
2022-08-17T11:23:18.436Z,4.47
2022-08-17T11:25:50.167Z,4.38
2022-08-17T11:28:24.507Z,4.28
2022-08-17T11:30:55.102Z,4.63
2022-08-17T11:33:56.703Z,4.53
2022-08-17T11:36:52.316Z,4.63
2022-08-17T11:39:33.272Z,4.28
2022-08-17T11:42:05.961Z,4.32
2022-08-17T11:44:47.559Z,3.75
2022-08-17T11:47:38.706Z,4.13
2022-08-17T11:50:49.671Z,4.65
2022-08-17T11:54:31.793Z,4.53
2022-08-17T11:56:59.114Z,4.45
2022-08-17T11:59:58.733Z,4.75
2022-08-17T12:02:47.353Z,4.90
2022-08-17T12:05:40.486Z,4.55
2022-08-17T12:08:15.220Z,4.68
2022-08-17T12:11:01.519Z,4.82
2022-08-17T12:13:38.624Z,4.63
2022-08-17T12:16:10.355Z,4.50
2022-08-17T12:18:41.969Z,4.50
2022-08-17T12:21:38.343Z,4.80
2022-08-17T12:24:14.632Z,4.80
2022-08-17T12:26:45.238Z,5.00
2022-08-17T12:29:18.497Z,4.82
2022-08-17T12:32:08.514Z,4.55
2022-08-17T12:34:40.996Z,4.50
2022-08-17T12:37:16.330Z,4.60
2022-08-17T12:39:52.461Z,4.32
2022-08-17T12:42:26.291Z,4.30
2022-08-17T12:44:54.803Z,3.90
2022-08-17T12:47:25.447Z,3.88
2022-08-17T12:50:08.335Z,4.97
2022-08-17T12:53:01.709Z,4.35
2022-08-17T12:55:32.732Z,4.07
2022-08-17T12:58:03.806Z,4.70
2022-08-17T13:00:34.530Z,4.60
2022-08-17T13:03:09.126Z,5.10
2022-08-17T13:05:43.586Z,4.20
2022-08-17T13:08:16.706Z,4.38
2022-08-17T13:10:54.267Z,4.85
2022-08-17T13:13:26.935Z,4.07
2022-08-17T13:15:57.153Z,4.60
2022-08-17T13:18:48.364Z,4.40
2022-08-17T13:21:27.718Z,4.00
2022-08-17T13:23:58.311Z,4.20
2022-08-17T13:26:30.898Z,4.00
2022-08-17T13:28:59.962Z,4.20
2022-08-17T13:31:48.316Z,3.90
2022-08-17T13:34:41.141Z,5.95
2022-08-17T13:37:30.149Z,4.10
2022-08-17T13:40:01.199Z,4.07
2022-08-17T13:42:52.178Z,3.80
2022-08-17T13:46:01.275Z,4.13
2022-08-17T13:48:32.077Z,3.92
2022-08-17T13:51:15.628Z,4.18
2022-08-17T13:53:58.100Z,4.30
2022-08-17T13:56:47.560Z,4.78
2022-08-17T13:59:54.159Z,4.25
2022-08-17T14:02:15.115Z,5.40
2022-08-17T14:04:46.018Z,9.98
2022-08-17T14:07:33.662Z,6.00
2022-08-17T14:10:06.100Z,3.80
2022-08-17T14:12:35.622Z,3.60
2022-08-17T14:15:04.606Z,4.00
2022-08-17T14:17:38.081Z,3.80
2022-08-17T14:20:10.471Z,4.15
2022-08-17T14:22:47.224Z,4.00
2022-08-17T14:25:17.590Z,4.00
2022-08-17T14:27:52.623Z,3.60
2022-08-17T14:30:23.773Z,3.75
2022-08-17T14:32:52.833Z,3.47
2022-08-17T14:35:23.294Z,3.45
2022-08-17T14:37:54.155Z,3.63
2022-08-17T14:40:24.965Z,3.80
2022-08-17T14:42:55.299Z,3.60
2022-08-17T14:45:30.230Z,3.88
2022-08-17T14:48:01.584Z,3.80
2022-08-17T14:50:30.229Z,3.50
2022-08-17T14:53:04.406Z,3.35
2022-08-17T14:55:33.516Z,3.58
2022-08-17T14:58:01.983Z,3.53
2022-08-17T15:00:31.497Z,3.80
2022-08-17T15:03:01.371Z,3.05
2022-08-17T15:05:32.541Z,3.33
2022-08-17T15:08:03.653Z,3.05
2022-08-17T15:10:32.713Z,3.15
2022-08-17T15:13:01.440Z,3.40
2022-08-17T15:15:30.598Z,3.50
2022-08-17T15:17:59.933Z,3.28
2022-08-17T15:20:30.535Z,3.47
2022-08-17T15:22:59.741Z,3.42
2022-08-17T15:25:32.253Z,3.47
2022-08-17T15:28:01.584Z,3.50
2022-08-17T15:30:30.487Z,3.30
2022-08-17T15:33:02.829Z,3.25
2022-08-17T15:35:36.097Z,3.40
2022-08-17T15:38:11.579Z,3.47
2022-08-17T15:40:44.263Z,3.28
2022-08-17T15:43:14.960Z,3.40
2022-08-17T15:45:43.988Z,3.50
2022-08-17T15:48:14.256Z,3.38
2022-08-17T15:50:45.122Z,3.28
2022-08-17T15:53:14.200Z,3.10
2022-08-17T15:55:44.274Z,3.72
2022-08-17T15:58:13.128Z,3.63
2022-08-17T16:00:53.375Z,3.42
2022-08-17T16:04:01.841Z,3.15
2022-08-17T16:06:24.472Z,3.25
2022-08-17T16:08:54.299Z,3.20
2022-08-17T16:11:24.889Z,3.00
2022-08-17T16:13:54.701Z,3.30
2022-08-17T16:16:24.715Z,3.20
2022-08-17T16:18:56.350Z,3.30
2022-08-17T16:21:31.233Z,2.97
2022-08-17T16:24:13.430Z,3.38
2022-08-17T16:26:44.113Z,3.40
2022-08-17T16:29:12.648Z,3.10
2022-08-17T16:31:41.932Z,3.22
2022-08-17T16:34:16.731Z,3.25
2022-08-17T16:36:55.182Z,3.33
2022-08-17T16:39:26.614Z,3.25
2022-08-17T16:41:56.957Z,3.33
2022-08-17T16:44:26.095Z,3.53
2022-08-17T16:46:54.569Z,3.45
2022-08-17T16:49:35.749Z,3.65
2022-08-17T16:52:07.858Z,3.47
2022-08-17T16:54:38.717Z,3.90
2022-08-17T16:57:08.732Z,3.40
2022-08-17T16:59:40.298Z,3.45
2022-08-17T17:02:11.714Z,3.50
2022-08-17T17:04:43.461Z,4.05
2022-08-17T17:07:35.052Z,6.88
2022-08-17T17:10:06.135Z,6.75
2022-08-17T17:13:01.273Z,6.13
2022-08-17T17:15:29.110Z,4.25
2022-08-17T17:18:06.173Z,3.97
2022-08-17T17:20:45.911Z,4.03
2022-08-17T17:23:26.258Z,3.90
2022-08-17T17:26:01.076Z,4.10
2022-08-17T17:28:35.450Z,4.07
2022-08-17T17:31:08.015Z,3.95
2022-08-17T17:33:40.311Z,4.03
2022-08-17T17:36:14.415Z,3.75
2022-08-17T17:38:46.849Z,3.85
2022-08-17T17:41:25.890Z,3.65
2022-08-17T17:44:01.920Z,4.07
2022-08-17T17:46:34.459Z,4.07
2022-08-17T17:49:02.947Z,4.03
2022-08-17T17:52:06.249Z,4.18
2022-08-17T17:54:40.435Z,4.13
2022-08-17T17:57:15.604Z,4.07
2022-08-17T17:59:54.142Z,4.50
2022-08-17T18:02:51.641Z,3.88
2022-08-17T18:05:58.322Z,3.83
2022-08-17T18:08:45.296Z,4.50
2022-08-17T18:11:37.107Z,4.35
2022-08-17T18:14:15.381Z,4.10
2022-08-17T18:16:48.066Z,4.70
2022-08-17T18:19:20.039Z,10.23
2022-08-17T18:21:52.247Z,11.70
2022-08-17T18:24:31.246Z,8.13
2022-08-17T18:27:01.230Z,8.60
2022-08-17T18:29:42.213Z,14.77
2022-08-17T18:32:32.474Z,8.30
2022-08-17T18:35:05.043Z,8.25
2022-08-17T18:37:37.704Z,12.07
2022-08-17T18:40:35.526Z,12.68
2022-08-17T18:43:24.406Z,9.02
2022-08-17T18:45:54.561Z,6.13
2022-08-17T18:48:28.046Z,9.98
2022-08-17T18:50:59.360Z,10.15
2022-08-17T18:53:33.992Z,8.95
2022-08-17T18:56:33.213Z,5.10
2022-08-17T18:59:14.370Z,6.70
2022-08-17T19:01:53.555Z,11.07
2022-08-17T19:04:33.957Z,9.38
2022-08-17T19:07:07.552Z,7.30
2022-08-17T19:09:39.368Z,7.10
2022-08-17T19:12:11.915Z,5.50
2022-08-17T19:14:40.720Z,4.70
2022-08-17T19:17:13.033Z,4.70
2022-08-17T19:19:46.613Z,4.50
2022-08-17T19:22:28.407Z,4.97
2022-08-17T19:25:16.160Z,6.65
2022-08-17T19:27:51.867Z,10.15
2022-08-17T19:30:27.794Z,7.43
2022-08-17T19:32:58.372Z,5.38
2022-08-17T19:35:34.976Z,5.40
2022-08-17T19:38:12.900Z,5.05
2022-08-17T19:40:54.406Z,5.70
2022-08-17T19:43:27.919Z,10.90
2022-08-17T19:46:02.359Z,17.50
2022-08-17T19:48:45.420Z,9.20
2022-08-17T19:51:19.155Z,5.45
2022-08-17T19:54:05.311Z,5.10
2022-08-17T19:56:40.221Z,4.97
2022-08-17T19:59:14.972Z,5.55
2022-08-17T20:01:48.952Z,5.00
2022-08-17T20:04:22.439Z,5.38
2022-08-17T20:06:53.190Z,5.50
2022-08-17T20:09:37.495Z,5.53
2022-08-17T20:12:10.855Z,6.80
2022-08-17T20:14:53.637Z,8.10
2022-08-17T20:17:28.294Z,7.57
2022-08-17T20:20:03.499Z,7.80
2022-08-17T20:22:52.495Z,6.25
2022-08-17T20:25:30.348Z,5.75
2022-08-17T20:28:06.371Z,5.65
2022-08-17T20:30:38.926Z,4.68
2022-08-17T20:33:13.181Z,5.07
2022-08-17T20:35:42.219Z,4.68
2022-08-17T20:38:14.704Z,5.85
2022-08-17T20:41:11.878Z,5.10
2022-08-17T20:44:03.264Z,6.57
2022-08-17T20:46:52.888Z,5.63
2022-08-17T20:49:27.226Z,5.95
2022-08-17T20:52:02.168Z,6.28
2022-08-17T20:54:49.020Z,6.30
2022-08-17T20:57:51.319Z,5.32
2022-08-17T21:00:43.135Z,5.07
2022-08-17T21:03:51.085Z,4.97
2022-08-17T21:06:22.994Z,5.22
2022-08-17T21:08:55.245Z,5.28
2022-08-17T21:12:04.084Z,4.95
2022-08-17T21:14:58.661Z,5.18
2022-08-17T21:17:42.337Z,5.10
2022-08-17T21:20:23.864Z,5.18
2022-08-17T21:23:10.078Z,5.15
2022-08-17T21:25:56.941Z,5.43
2022-08-17T21:28:33.862Z,5.10
2022-08-17T21:31:08.972Z,4.95
2022-08-17T21:33:39.078Z,5.10
2022-08-17T21:36:24.780Z,4.93
2022-08-17T21:39:03.120Z,5.53
2022-08-17T21:41:46.233Z,5.30
2022-08-17T21:44:33.823Z,5.20
2022-08-17T21:47:24.601Z,5.10
2022-08-17T21:49:53.884Z,5.03
2022-08-17T21:52:25.262Z,5.10
2022-08-17T21:54:56.236Z,5.20
2022-08-17T21:57:28.704Z,4.90
2022-08-17T22:00:00.290Z,5.20
2022-08-17T22:02:33.763Z,5.53
2022-08-17T22:05:04.511Z,5.17
2022-08-17T22:07:38.432Z,5.13
2022-08-17T22:10:09.416Z,5.00
2022-08-17T22:12:38.640Z,5.20
2022-08-17T22:15:10.410Z,5.33
2022-08-17T22:17:45.076Z,4.80
2022-08-17T22:20:16.780Z,5.00
2022-08-17T22:23:25.183Z,4.70
2022-08-17T22:26:02.076Z,5.13
2022-08-17T22:28:42.663Z,5.23
2022-08-17T22:31:15.453Z,5.53
2022-08-17T22:33:47.055Z,5.10
2022-08-17T22:36:26.255Z,4.77
2022-08-17T22:38:59.918Z,5.20
2022-08-17T22:41:40.518Z,4.93
2022-08-17T22:44:23.242Z,5.40
2022-08-17T22:46:59.889Z,5.27
2022-08-17T22:49:32.444Z,5.30
2022-08-17T22:52:08.405Z,5.33
2022-08-17T22:54:54.560Z,5.00
2022-08-17T22:57:42.012Z,5.07
2022-08-17T23:00:29.848Z,5.40
2022-08-17T23:03:15.586Z,5.13
2022-08-17T23:05:46.103Z,4.63
2022-08-17T23:08:20.986Z,4.83
2022-08-17T23:10:50.275Z,5.00
2022-08-17T23:13:18.869Z,5.20
2022-08-17T23:15:48.189Z,5.57
2022-08-17T23:18:18.243Z,5.20
2022-08-17T23:20:47.174Z,5.33
2022-08-17T23:23:18.755Z,5.33
2022-08-17T23:25:49.395Z,4.80
2022-08-17T23:28:18.056Z,4.73
2022-08-17T23:30:48.498Z,5.10
2022-08-17T23:33:21.314Z,4.80
2022-08-17T23:35:50.165Z,5.17
2022-08-17T23:38:18.711Z,4.73
2022-08-17T23:40:47.242Z,5.10
2022-08-17T23:43:23.756Z,5.10
2022-08-17T23:45:55.036Z,4.77
2022-08-17T23:48:35.173Z,5.00
2022-08-17T23:51:08.694Z,5.10
2022-08-17T23:53:37.962Z,4.83
2022-08-17T23:56:10.063Z,4.90
2022-08-17T23:58:42.573Z,4.90
